»·PEaware :: CAD95 KPHX-KSNA

CAD95 :: KPHX-KSNA

FLIGHT INFORMATION

Flight Status: Arrived
Operator: Unknown
More flights by this operator :: More flights under this callsign
Pilot: Max W. (2591)
Aircraft: BOEING 767-300
(B763)
More flights by this aircraft type
Origin: KPHX Phoenix Sky Harbor Intl
United States
Destination: KSNA John Wayne-Orange Co
United States
More flights between these airports :: More routes between these airports
Route: KEENS2 HRRBR EMLLD DSNEE4
File this flight plan on PilotEdge
Remarks:
Altitude:
(Current/Filed)
28,000ft
Speed:
(Current/Filed)
450kts
Departed: 08-Oct-18 06:56 PM
Arrived: 08-Oct-18 07:50 PM
Distance/Time
Traveled:
293nm/0:54
Distance/Time
To Go:
Arrived

Flight Plot

Page will automatically refresh every two minutes.

Flight plan parsing failed; only flown route is shown


Map Options




Map Legend


Flown Route
Filed Route
Departure Airport
Arrival Airport
Navaid (VOR, NDB)
Fix

Horizontal Profiles

Position Reports

Time Latitude Longitude Heading Altitude Ground
Speed
08-Oct-18 18:34 33.426914 -112.018013 89 1120ft 0kts
08-Oct-18 18:35 33.426914 -112.018013 90 1120ft 0kts
08-Oct-18 18:36 33.426914 -112.018013 90 1120ft 0kts
08-Oct-18 18:37 33.426914 -112.018013 90 1120ft 0kts
08-Oct-18 18:38 33.426914 -112.018013 90 1120ft 0kts
08-Oct-18 18:39 33.426914 -112.018013 90 1120ft 0kts
08-Oct-18 18:40 33.426914 -112.018013 90 1120ft 0kts
08-Oct-18 18:41 33.426914 -112.018013 90 1120ft 0kts
08-Oct-18 18:42 33.426914 -112.018013 90 1120ft 0kts
08-Oct-18 18:43 33.426914 -112.018013 90 1120ft 0kts
08-Oct-18 18:44 33.426914 -112.018013 90 1120ft 0kts
08-Oct-18 18:45 33.426914 -112.018013 90 1120ft 0kts
08-Oct-18 18:46 33.426914 -112.018013 90 1120ft 0kts
08-Oct-18 18:47 33.426914 -112.018013 90 1120ft 0kts
08-Oct-18 18:48 33.426922 -112.017954 76 1120ft 2kts
08-Oct-18 18:49 33.427097 -112.017865 356 1120ft 0kts
08-Oct-18 18:50 33.427097 -112.017865 356 1120ft 0kts
08-Oct-18 18:51 33.427097 -112.017865 356 1120ft 0kts
08-Oct-18 18:52 33.427365 -112.017872 351 1120ft 7kts
08-Oct-18 18:53 33.427783 -112.022052 271 1120ft 18kts
08-Oct-18 18:54 33.427822 -112.026494 286 1120ft 0kts
08-Oct-18 18:55 33.427835 -112.026542 288 1120ft 0kts
08-Oct-18 18:56 33.430322 -112.026945 2 1120ft 15kts
08-Oct-18 18:57 33.431054 -112.025055 90 1120ft 34kts
08-Oct-18 18:58 33.430233 -111.975558 83 2620ft 183kts
08-Oct-18 18:59 33.434724 -111.900295 84 6200ft 248kts
08-Oct-18 19:00 33.390945 -111.847290 189 10619ft 267kts
08-Oct-18 19:01 33.357529 -111.911368 276 14656ft 262kts
08-Oct-18 19:02 33.365722 -112.014212 279 16113ft 369kts
08-Oct-18 19:03 33.384120 -112.138808 282 20031ft 394kts
08-Oct-18 19:04 33.403561 -112.269943 283 23675ft 412kts
08-Oct-18 19:05 33.423027 -112.402724 284 27701ft 403kts
08-Oct-18 19:06 33.441868 -112.533243 284 27828ft 395kts
08-Oct-18 19:07 33.452043 -112.663055 275 27836ft 403kts
08-Oct-18 19:08 33.455118 -112.797397 280 27838ft 441kts
08-Oct-18 19:09 33.480078 -112.938015 287 27834ft 429kts
08-Oct-18 19:10 33.505928 -113.076746 289 27833ft 428kts
08-Oct-18 19:11 33.531770 -113.216129 289 27832ft 428kts
08-Oct-18 19:12 33.557340 -113.355062 289 27830ft 428kts
08-Oct-18 19:13 33.583064 -113.495773 289 27832ft 435kts
08-Oct-18 19:14 33.609170 -113.636382 289 27813ft 435kts
08-Oct-18 19:15 33.634416 -113.772291 288 27795ft 436kts
08-Oct-18 19:16 33.668883 -113.909263 300 27792ft 426kts
08-Oct-18 19:17 33.718425 -114.037814 299 27793ft 427kts
08-Oct-18 19:18 33.761213 -114.171269 285 27816ft 439kts
08-Oct-18 19:19 33.779574 -114.316724 284 27799ft 441kts
08-Oct-18 19:20 33.796681 -114.462667 284 27798ft 442kts
08-Oct-18 19:21 33.813620 -114.608026 284 27799ft 442kts
08-Oct-18 19:22 33.829813 -114.749200 284 27803ft 442kts
08-Oct-18 19:23 33.845848 -114.891420 284 27802ft 442kts
08-Oct-18 19:24 33.856192 -115.039115 280 27799ft 445kts
08-Oct-18 19:25 33.869719 -115.185665 282 27796ft 434kts
08-Oct-18 19:26 33.884745 -115.325804 283 27777ft 423kts
08-Oct-18 19:27 33.899841 -115.465851 283 27745ft 423kts
08-Oct-18 19:28 33.914829 -115.606255 282 27744ft 423kts
08-Oct-18 19:29 33.925837 -115.741184 280 27752ft 425kts
08-Oct-18 19:30 33.935684 -115.880681 280 27641ft 425kts
08-Oct-18 19:31 33.945253 -116.018523 280 26040ft 401kts
08-Oct-18 19:32 33.954170 -116.148755 279 24462ft 382kts
08-Oct-18 19:33 33.948198 -116.274922 267 23796ft 386kts
08-Oct-18 19:34 33.932698 -116.402457 267 23726ft 388kts
08-Oct-18 19:35 33.918006 -116.521143 266 22013ft 383kts
08-Oct-18 19:36 33.902023 -116.646001 265 20180ft 375kts
08-Oct-18 19:37 33.886935 -116.763474 266 18444ft 368kts
08-Oct-18 19:38 33.874390 -116.878461 266 16546ft 315kts
08-Oct-18 19:39 33.863392 -116.979922 264 13119ft 339kts
08-Oct-18 19:40 33.850827 -117.093785 262 12287ft 336kts
08-Oct-18 19:41 33.838509 -117.203942 262 11901ft 334kts
08-Oct-18 19:42 33.827393 -117.302469 262 10404ft 298kts
08-Oct-18 19:43 33.816258 -117.400621 263 7945ft 272kts
08-Oct-18 19:44 33.825388 -117.480884 281 5368ft 232kts
08-Oct-18 19:45 33.837217 -117.554776 281 4920ft 217kts
08-Oct-18 19:46 33.828195 -117.623166 237 4894ft 222kts
08-Oct-18 19:47 33.794714 -117.682667 236 4652ft 221kts
08-Oct-18 19:48 33.762192 -117.741793 237 2875ft 202kts
08-Oct-18 19:49 33.732594 -117.797325 236 2115ft 187kts
08-Oct-18 19:50 33.705778 -117.845573 229 1054ft 137kts
08-Oct-18 19:51 33.674664 -117.869445 210 68ft 106kts
08-Oct-18 19:52 33.670875 -117.869043 40 67ft 28kts
08-Oct-18 19:53 33.675650 -117.864903 114 67ft 0kts

Navigation Log

Ident Type
Flight plan parsing failed, navigation log unavailable